createdAt,value
2022-07-28T00:01:18.817Z,2.70
2022-07-28T00:03:49.020Z,2.28
2022-07-28T00:06:16.480Z,2.17
2022-07-28T00:08:43.617Z,1.90
2022-07-28T00:11:11.072Z,2.05
2022-07-28T00:13:38.186Z,1.95
2022-07-28T00:16:05.463Z,1.60
2022-07-28T00:18:33.300Z,2.10
2022-07-28T00:21:01.574Z,1.80
2022-07-28T00:23:37.649Z,2.00
2022-07-28T00:26:08.345Z,2.00
2022-07-28T00:28:36.123Z,2.00
2022-07-28T00:31:05.708Z,1.73
2022-07-28T00:33:37.603Z,1.60
2022-07-28T00:36:05.051Z,1.70
2022-07-28T00:38:34.294Z,1.60
2022-07-28T00:41:12.294Z,1.52
2022-07-28T00:43:44.857Z,1.30
2022-07-28T00:46:13.721Z,2.20
2022-07-28T00:48:44.112Z,1.90
2022-07-28T00:51:11.789Z,1.92
2022-07-28T00:53:39.254Z,1.92
2022-07-28T00:56:07.584Z,1.77
2022-07-28T00:58:36.793Z,1.80
2022-07-28T01:01:05.533Z,1.90
2022-07-28T01:03:33.161Z,1.80
2022-07-28T01:06:11.145Z,1.87
2022-07-28T01:08:52.845Z,2.40
2022-07-28T01:12:01.819Z,2.05
2022-07-28T01:14:55.068Z,1.85
2022-07-28T01:17:41.077Z,1.70
2022-07-28T01:20:16.940Z,1.90
2022-07-28T01:23:12.998Z,2.22
2022-07-28T01:25:58.212Z,1.90
2022-07-28T01:28:40.880Z,2.22
2022-07-28T01:31:09.428Z,1.67
2022-07-28T01:33:44.941Z,2.40
2022-07-28T01:36:15.428Z,1.90
2022-07-28T01:38:43.433Z,2.22
2022-07-28T01:41:13.142Z,2.08
2022-07-28T01:43:42.574Z,2.40
2022-07-28T01:46:11.723Z,2.20
2022-07-28T01:48:41.334Z,1.87
2022-07-28T01:51:09.483Z,1.90
2022-07-28T01:53:38.536Z,2.08
2022-07-28T01:56:06.523Z,2.10
2022-07-28T01:58:34.693Z,2.22
2022-07-28T02:01:04.230Z,2.17
2022-07-28T02:03:32.987Z,2.10
2022-07-28T02:06:02.719Z,2.17
2022-07-28T02:08:30.822Z,2.00
2022-07-28T02:11:25.238Z,2.10
2022-07-28T02:13:53.485Z,2.47
2022-07-28T02:16:23.024Z,2.22
2022-07-28T02:18:52.401Z,2.15
2022-07-28T02:21:20.531Z,1.90
2022-07-28T02:23:48.979Z,2.08
2022-07-28T02:26:17.923Z,2.37
2022-07-28T02:28:51.334Z,2.33
2022-07-28T02:31:27.882Z,1.90
2022-07-28T02:34:02.080Z,2.03
2022-07-28T02:39:11.038Z,2.28
2022-07-28T02:41:40.402Z,2.12
2022-07-28T02:44:16.697Z,2.37
2022-07-28T02:46:45.559Z,2.37
2022-07-28T02:49:16.727Z,2.30
2022-07-28T02:51:48.151Z,2.45
2022-07-28T02:54:18.079Z,2.30
2022-07-28T02:56:53.272Z,2.62
2022-07-28T02:59:21.876Z,2.40
2022-07-28T03:01:50.023Z,2.83
2022-07-28T03:04:38.516Z,2.50
2022-07-28T03:07:06.690Z,2.58
2022-07-28T03:09:40.355Z,2.35
2022-07-28T03:12:09.176Z,2.50
2022-07-28T03:14:36.487Z,2.35
2022-07-28T03:17:04.003Z,2.60
2022-07-28T03:19:31.788Z,2.40
2022-07-28T03:21:58.913Z,2.40
2022-07-28T03:24:32.447Z,2.80
2022-07-28T03:27:02.187Z,2.40
2022-07-28T03:29:31.655Z,2.62
2022-07-28T03:31:59.769Z,2.45
2022-07-28T03:34:27.598Z,2.65
2022-07-28T03:37:08.999Z,2.47
2022-07-28T03:39:39.303Z,2.78
2022-07-28T03:42:07.112Z,3.00
2022-07-28T03:44:34.667Z,2.85
2022-07-28T03:47:02.164Z,3.67
2022-07-28T03:49:29.274Z,3.25
2022-07-28T03:51:56.378Z,2.85
2022-07-28T03:54:23.756Z,3.33
2022-07-28T03:56:50.859Z,2.70
2022-07-28T03:59:19.179Z,2.78
2022-07-28T04:01:46.757Z,3.10
2022-07-28T04:04:14.652Z,2.90
2022-07-28T04:06:42.042Z,2.90
2022-07-28T04:09:09.110Z,3.42
2022-07-28T04:11:36.513Z,2.85
2022-07-28T04:14:03.612Z,3.15
2022-07-28T04:16:30.821Z,3.42
2022-07-28T04:18:58.319Z,3.60
2022-07-28T04:21:25.902Z,3.80
2022-07-28T04:23:54.501Z,3.37
2022-07-28T04:26:24.863Z,3.15
2022-07-28T04:28:51.914Z,3.55
2022-07-28T04:31:19.096Z,3.12
2022-07-28T04:33:47.265Z,3.47
2022-07-28T04:36:14.337Z,3.65
2022-07-28T04:38:42.218Z,3.47
2022-07-28T04:41:09.655Z,4.03
2022-07-28T04:43:37.578Z,3.53
2022-07-28T04:46:04.869Z,3.50
2022-07-28T04:48:32.374Z,3.20
2022-07-28T04:50:59.648Z,3.70
2022-07-28T04:53:28.441Z,3.65
2022-07-28T04:55:57.390Z,3.70
2022-07-28T04:58:25.078Z,3.87
2022-07-28T05:00:52.680Z,3.70
2022-07-28T05:03:20.826Z,4.20
2022-07-28T05:05:51.429Z,3.45
2022-07-28T05:08:25.590Z,3.33
2022-07-28T05:10:55.141Z,3.40
2022-07-28T05:13:22.681Z,3.55
2022-07-28T05:15:49.846Z,3.42
2022-07-28T05:18:16.963Z,3.85
2022-07-28T05:20:44.344Z,4.70
2022-07-28T05:23:12.857Z,4.18
2022-07-28T05:25:40.067Z,4.47
2022-07-28T05:28:07.567Z,5.05
2022-07-28T05:30:37.020Z,3.28
2022-07-28T05:33:04.395Z,3.30
2022-07-28T05:35:31.842Z,3.67
2022-07-28T05:37:59.047Z,3.67
2022-07-28T05:40:27.294Z,3.47
2022-07-28T05:42:54.761Z,3.53
2022-07-28T05:45:22.171Z,3.53
2022-07-28T05:47:53.116Z,3.55
2022-07-28T05:50:22.444Z,3.17
2022-07-28T05:52:50.287Z,3.47
2022-07-28T05:55:18.032Z,3.10
2022-07-28T05:57:45.980Z,3.20
2022-07-28T06:00:19.304Z,3.15
2022-07-28T06:02:49.494Z,3.12
2022-07-28T06:05:21.557Z,3.70
2022-07-28T06:07:50.657Z,3.90
2022-07-28T06:10:20.379Z,3.62
2022-07-28T06:12:50.340Z,3.60
2022-07-28T06:15:28.248Z,5.15
2022-07-28T06:17:55.704Z,3.90
2022-07-28T06:20:23.931Z,3.62
2022-07-28T06:22:52.996Z,3.72
2022-07-28T06:25:22.396Z,3.35
2022-07-28T06:27:52.568Z,3.40
2022-07-28T06:30:20.463Z,3.47
2022-07-28T06:32:47.878Z,3.40
2022-07-28T06:35:16.720Z,3.45
2022-07-28T06:37:44.705Z,3.55
2022-07-28T06:40:13.133Z,3.55
2022-07-28T06:42:41.892Z,3.22
2022-07-28T06:45:19.696Z,3.92
2022-07-28T06:47:52.751Z,3.50
2022-07-28T06:50:26.083Z,3.70
2022-07-28T06:52:55.438Z,4.60
2022-07-28T06:55:22.660Z,3.97
2022-07-28T06:57:49.885Z,3.78
2022-07-28T07:00:17.551Z,3.62
2022-07-28T07:02:44.987Z,3.72
2022-07-28T07:05:12.966Z,4.53
2022-07-28T07:07:43.346Z,5.10
2022-07-28T07:10:11.170Z,4.20
2022-07-28T07:12:38.814Z,4.25
2022-07-28T07:15:07.129Z,3.70
2022-07-28T07:17:34.276Z,3.60
2022-07-28T07:20:01.390Z,4.20
2022-07-28T07:22:28.848Z,3.42
2022-07-28T07:24:57.777Z,3.95
2022-07-28T07:27:27.842Z,3.78
2022-07-28T07:29:55.199Z,3.17
2022-07-28T07:32:22.283Z,4.20
2022-07-28T07:34:49.503Z,3.92
2022-07-28T07:37:17.557Z,3.28
2022-07-28T07:39:44.674Z,3.65
2022-07-28T07:42:11.711Z,3.12
2022-07-28T07:44:39.134Z,3.50
2022-07-28T07:47:09.320Z,4.22
2022-07-28T07:49:45.653Z,3.65
2022-07-28T07:52:14.496Z,3.47
2022-07-28T07:54:41.990Z,3.87
2022-07-28T07:57:09.835Z,3.90
2022-07-28T07:59:37.841Z,3.30
2022-07-28T08:02:05.329Z,3.90
2022-07-28T08:04:38.411Z,3.95
2022-07-28T08:07:06.651Z,4.28
2022-07-28T08:09:34.718Z,3.80
2022-07-28T08:12:01.958Z,4.00
2022-07-28T08:14:29.081Z,3.65
2022-07-28T08:16:59.671Z,3.90
2022-07-28T08:19:27.033Z,3.90
2022-07-28T08:21:55.549Z,4.00
2022-07-28T08:24:32.630Z,3.42
2022-07-28T08:27:04.926Z,3.85
2022-07-28T08:29:32.406Z,3.45
2022-07-28T08:32:02.942Z,3.85
2022-07-28T08:34:34.101Z,3.90
2022-07-28T08:37:03.046Z,3.70
2022-07-28T08:39:31.284Z,3.37
2022-07-28T08:42:05.846Z,3.85
2022-07-28T08:44:56.476Z,3.67
2022-07-28T08:47:35.599Z,3.70
2022-07-28T08:50:08.134Z,3.53
2022-07-28T08:52:35.597Z,3.42
2022-07-28T08:55:07.028Z,3.40
2022-07-28T08:57:41.236Z,4.28
2022-07-28T09:00:10.115Z,4.30
2022-07-28T09:02:41.888Z,3.22
2022-07-28T09:05:09.375Z,3.28
2022-07-28T09:07:41.493Z,3.65
2022-07-28T09:10:11.319Z,3.30
2022-07-28T09:12:40.013Z,3.50
2022-07-28T09:15:08.453Z,3.85
2022-07-28T09:17:36.938Z,3.70
2022-07-28T09:20:10.693Z,3.62
2022-07-28T09:22:57.024Z,3.10
2022-07-28T09:25:24.958Z,3.78
2022-07-28T09:27:52.629Z,3.58
2022-07-28T09:30:31.097Z,3.83
2022-07-28T09:33:42.343Z,3.65
2022-07-28T09:36:16.588Z,3.55
2022-07-28T09:38:44.864Z,3.70
2022-07-28T09:41:12.172Z,3.20
2022-07-28T09:43:44.652Z,4.32
2022-07-28T09:46:17.207Z,3.40
2022-07-28T09:48:50.834Z,3.55
2022-07-28T09:51:20.829Z,3.78
2022-07-28T09:53:48.107Z,3.75
2022-07-28T09:56:15.193Z,3.70
2022-07-28T09:58:53.401Z,3.42
2022-07-28T10:01:21.797Z,3.60
2022-07-28T10:03:55.957Z,3.42
2022-07-28T10:06:33.705Z,3.50
2022-07-28T10:09:04.046Z,3.50
2022-07-28T10:11:31.725Z,3.12
2022-07-28T10:14:06.529Z,2.90
2022-07-28T10:16:46.910Z,3.08
2022-07-28T10:19:14.368Z,3.90
2022-07-28T10:21:45.509Z,3.40
2022-07-28T10:24:22.659Z,3.40
2022-07-28T10:26:50.839Z,3.47
2022-07-28T10:29:20.798Z,3.20
2022-07-28T10:31:55.797Z,3.45
2022-07-28T10:34:32.406Z,2.87
2022-07-28T10:37:03.129Z,3.42
2022-07-28T10:39:41.559Z,3.40
2022-07-28T10:42:11.528Z,3.03
2022-07-28T10:44:39.536Z,3.30
2022-07-28T10:47:10.361Z,3.20
2022-07-28T10:49:48.594Z,3.58
2022-07-28T10:55:44.163Z,3.62
2022-07-28T10:58:26.438Z,3.17
2022-07-28T11:01:02.159Z,4.00
2022-07-28T11:03:43.848Z,3.22
2022-07-28T11:06:36.901Z,3.37
2022-07-28T11:09:24.292Z,3.20
2022-07-28T11:11:53.931Z,3.72
2022-07-28T11:14:27.823Z,3.37
2022-07-28T11:17:01.204Z,3.17
2022-07-28T11:19:55.883Z,3.17
2022-07-28T11:22:38.683Z,3.42
2022-07-28T11:25:19.756Z,3.60
2022-07-28T11:27:52.208Z,3.35
2022-07-28T11:30:21.178Z,3.35
2022-07-28T11:32:53.293Z,3.60
2022-07-28T11:35:20.837Z,3.17
2022-07-28T11:38:03.519Z,5.18
2022-07-28T11:40:40.203Z,3.30
2022-07-28T11:43:36.102Z,3.30
2022-07-28T11:46:09.410Z,3.10
2022-07-28T11:48:39.393Z,3.62
2022-07-28T11:51:06.910Z,3.30
2022-07-28T11:53:40.592Z,3.85
2022-07-28T11:56:12.387Z,3.25
2022-07-28T11:58:40.361Z,3.03
2022-07-28T12:01:21.017Z,2.97
2022-07-28T12:03:55.271Z,3.20
2022-07-28T12:06:36.893Z,3.00
2022-07-28T12:09:06.465Z,2.65
2022-07-28T12:11:35.640Z,3.25
2022-07-28T12:14:06.117Z,2.95
2022-07-28T12:16:35.619Z,3.12
2022-07-28T12:19:04.707Z,3.20
2022-07-28T12:21:46.234Z,2.90
2022-07-28T12:24:24.430Z,3.12
2022-07-28T12:26:51.508Z,3.03
2022-07-28T12:29:20.718Z,2.70
2022-07-28T12:31:54.528Z,3.40
2022-07-28T12:34:28.555Z,3.08
2022-07-28T12:36:59.548Z,2.92
2022-07-28T12:39:27.025Z,2.92
2022-07-28T12:42:03.569Z,2.80
2022-07-28T12:44:34.381Z,2.80
2022-07-28T12:47:02.819Z,3.50
2022-07-28T12:49:29.960Z,3.00
2022-07-28T12:51:59.181Z,3.67
2022-07-28T12:54:36.934Z,3.10
2022-07-28T12:57:04.779Z,3.40
2022-07-28T12:59:36.509Z,4.78
2022-07-28T13:02:04.903Z,3.20
2022-07-28T13:04:45.818Z,3.35
2022-07-28T13:07:21.778Z,3.03
2022-07-28T13:10:01.329Z,3.50
2022-07-28T13:12:30.958Z,3.67
2022-07-28T13:15:00.056Z,3.53
2022-07-28T13:17:49.114Z,3.70
2022-07-28T13:20:16.643Z,3.00
2022-07-28T13:22:45.698Z,3.30
2022-07-28T13:25:13.710Z,3.08
2022-07-28T13:27:41.330Z,3.00
2022-07-28T13:30:09.681Z,3.97
2022-07-28T13:32:36.898Z,3.20
2022-07-28T13:35:05.451Z,3.70
2022-07-28T13:37:32.761Z,3.05
2022-07-28T13:40:01.789Z,3.10
2022-07-28T13:42:30.371Z,3.03
2022-07-28T13:44:57.486Z,3.42
2022-07-28T13:47:26.992Z,4.15
2022-07-28T13:50:03.578Z,3.30
2022-07-28T13:52:34.941Z,2.92
2022-07-28T13:55:06.973Z,2.95
2022-07-28T13:57:36.509Z,3.08
2022-07-28T14:00:07.515Z,3.10
2022-07-28T14:02:35.824Z,2.83
2022-07-28T14:05:04.788Z,3.22
2022-07-28T14:07:31.897Z,3.40
2022-07-28T14:09:59.591Z,3.50
2022-07-28T14:12:26.679Z,3.17
2022-07-28T14:14:53.813Z,3.05
2022-07-28T14:20:10.672Z,2.85
2022-07-28T14:22:38.065Z,3.15
2022-07-28T14:25:05.692Z,2.58
2022-07-28T14:27:33.929Z,2.87
2022-07-28T14:30:03.168Z,3.60
2022-07-28T14:32:31.316Z,2.92
2022-07-28T14:34:58.494Z,3.10
2022-07-28T14:37:25.908Z,3.00
2022-07-28T14:39:53.000Z,2.53
2022-07-28T14:42:20.067Z,3.15
2022-07-28T14:44:47.833Z,3.17
2022-07-28T14:47:15.609Z,3.42
2022-07-28T14:49:57.366Z,3.05
2022-07-28T14:52:29.578Z,3.20
2022-07-28T14:54:57.685Z,3.10
2022-07-28T14:57:50.404Z,4.00
2022-07-28T15:00:14.588Z,3.00
2022-07-28T15:02:42.064Z,3.20
2022-07-28T15:05:13.098Z,3.30
2022-07-28T15:07:42.079Z,3.35
2022-07-28T15:10:10.439Z,3.22
2022-07-28T15:12:37.941Z,2.90
2022-07-28T15:15:05.751Z,3.20
2022-07-28T15:17:33.386Z,3.30
2022-07-28T15:20:00.864Z,4.25
2022-07-28T15:22:28.377Z,3.05
2022-07-28T15:24:55.399Z,3.40
2022-07-28T15:27:23.668Z,3.10
2022-07-28T15:29:52.248Z,3.30
2022-07-28T15:32:28.224Z,2.80
2022-07-28T15:34:55.968Z,2.78
2022-07-28T15:37:23.256Z,2.87
2022-07-28T15:39:50.641Z,2.90
2022-07-28T15:42:18.095Z,2.40
2022-07-28T15:44:45.251Z,3.95
2022-07-28T15:47:12.326Z,2.97
2022-07-28T15:49:39.848Z,2.67
2022-07-28T15:52:06.933Z,2.58
2022-07-28T15:54:34.008Z,2.40
2022-07-28T15:57:01.451Z,2.97
2022-07-28T15:59:49.654Z,2.92
2022-07-28T16:02:18.026Z,2.42
2022-07-28T16:04:52.158Z,2.60
2022-07-28T16:07:24.376Z,3.03
2022-07-28T16:09:55.486Z,2.80
2022-07-28T16:12:25.239Z,2.55
2022-07-28T16:14:55.805Z,2.95
2022-07-28T16:17:23.579Z,2.85
2022-07-28T16:19:54.099Z,2.58
2022-07-28T16:22:21.979Z,2.75
2022-07-28T16:24:50.829Z,2.62
2022-07-28T16:27:18.018Z,2.40
2022-07-28T16:29:45.589Z,2.40
2022-07-28T16:32:12.870Z,2.62
2022-07-28T16:34:39.971Z,2.58
2022-07-28T16:37:07.595Z,2.90
2022-07-28T16:39:35.159Z,2.72
2022-07-28T16:42:03.020Z,2.95
2022-07-28T16:44:30.965Z,2.50
2022-07-28T16:46:58.583Z,2.95
2022-07-28T16:49:25.912Z,3.22
2022-07-28T16:51:54.765Z,3.15
2022-07-28T16:54:22.499Z,3.17
2022-07-28T16:56:50.201Z,3.62
2022-07-28T16:59:17.598Z,3.05
2022-07-28T17:01:46.479Z,3.58
2022-07-28T17:04:17.755Z,3.05
2022-07-28T17:06:47.812Z,3.58
2022-07-28T17:09:16.175Z,3.10
2022-07-28T17:11:43.867Z,3.55
2022-07-28T17:14:12.697Z,3.70
2022-07-28T17:16:40.135Z,3.37
2022-07-28T17:19:07.294Z,3.40
2022-07-28T17:21:35.962Z,3.47
2022-07-28T17:24:03.629Z,2.97
2022-07-28T17:29:19.483Z,3.42
2022-07-28T17:31:46.766Z,3.70
2022-07-28T17:34:14.384Z,3.45
2022-07-28T17:36:42.276Z,3.35
2022-07-28T17:39:09.442Z,2.95
2022-07-28T17:41:36.540Z,2.80
2022-07-28T17:44:04.292Z,8.73
2022-07-28T17:46:32.329Z,3.40
2022-07-28T17:49:01.909Z,2.78
2022-07-28T17:51:30.743Z,3.25
2022-07-28T17:53:57.892Z,3.00
2022-07-28T17:56:25.406Z,3.60
2022-07-28T17:58:53.500Z,3.40
2022-07-28T18:01:21.030Z,3.35
2022-07-28T18:03:58.940Z,3.05
2022-07-28T18:06:35.392Z,3.30
2022-07-28T18:09:09.964Z,2.87
2022-07-28T18:11:56.593Z,2.78
2022-07-28T18:14:27.284Z,3.30
2022-07-28T18:16:54.892Z,3.03
2022-07-28T18:19:22.190Z,3.20
2022-07-28T18:21:49.756Z,3.15
2022-07-28T18:24:18.115Z,3.00
2022-07-28T18:26:45.611Z,3.00
2022-07-28T18:29:12.968Z,3.15
2022-07-28T18:31:45.877Z,3.20
2022-07-28T18:34:15.227Z,3.33
2022-07-28T18:36:42.738Z,3.05
2022-07-28T18:39:09.979Z,3.10
2022-07-28T18:41:47.240Z,3.50
2022-07-28T18:44:17.001Z,2.97
2022-07-28T18:46:45.124Z,3.50
2022-07-28T18:49:12.368Z,2.90
2022-07-28T18:51:39.535Z,3.00
2022-07-28T18:54:11.855Z,2.70
2022-07-28T18:56:39.053Z,3.15
2022-07-28T18:59:06.124Z,2.72
2022-07-28T19:01:33.524Z,2.95
2022-07-28T19:04:00.639Z,3.40
2022-07-28T19:06:29.210Z,3.20
2022-07-28T19:08:56.609Z,3.10
2022-07-28T19:11:23.674Z,3.08
2022-07-28T19:13:50.778Z,3.03
2022-07-28T19:16:19.498Z,3.35
2022-07-28T19:18:46.715Z,3.12
2022-07-28T19:21:13.859Z,3.10
2022-07-28T19:23:41.265Z,2.80
2022-07-28T19:26:08.384Z,3.00
2022-07-28T19:28:36.249Z,2.90
2022-07-28T19:31:10.168Z,3.20
2022-07-28T19:36:15.366Z,3.03
2022-07-28T19:38:44.006Z,2.90
2022-07-28T19:41:13.116Z,2.97
2022-07-28T19:43:40.470Z,2.92
2022-07-28T19:46:07.731Z,2.87
2022-07-28T19:48:35.276Z,2.60
2022-07-28T19:51:02.523Z,3.10
2022-07-28T19:53:32.031Z,3.60
2022-07-28T19:56:01.967Z,3.17
2022-07-28T19:58:29.107Z,2.80
2022-07-28T20:00:56.638Z,3.03
2022-07-28T20:04:03.471Z,3.12
2022-07-28T20:06:12.531Z,2.62
2022-07-28T20:08:40.022Z,3.12
2022-07-28T20:11:07.724Z,3.20
2022-07-28T20:13:34.843Z,3.03
2022-07-28T20:16:02.214Z,3.20
2022-07-28T20:18:29.310Z,3.00
2022-07-28T20:20:56.437Z,3.33
2022-07-28T20:23:23.932Z,3.00
2022-07-28T20:25:51.027Z,2.75
2022-07-28T20:28:18.140Z,2.97
2022-07-28T20:30:45.634Z,2.97
2022-07-28T20:33:12.765Z,3.15
2022-07-28T20:35:39.821Z,3.08
2022-07-28T20:38:08.343Z,3.20
2022-07-28T20:40:35.882Z,3.10
2022-07-28T20:43:03.140Z,3.03
2022-07-28T20:45:31.880Z,3.20
2022-07-28T20:47:59.145Z,2.78
2022-07-28T20:50:26.277Z,3.00
2022-07-28T20:52:53.877Z,3.00
2022-07-28T20:55:21.077Z,2.92
2022-07-28T20:57:53.201Z,4.20
2022-07-28T21:00:21.929Z,2.78
2022-07-28T21:02:49.049Z,2.92
2022-07-28T21:05:22.099Z,3.00
2022-07-28T21:07:59.863Z,3.05
2022-07-28T21:10:28.423Z,2.97
2022-07-28T21:12:55.800Z,3.17
2022-07-28T21:15:23.868Z,3.05
2022-07-28T21:17:53.860Z,3.00
2022-07-28T21:20:21.386Z,2.90
2022-07-28T21:22:49.030Z,3.08
2022-07-28T21:25:16.168Z,3.03
2022-07-28T21:28:02.098Z,3.15
2022-07-28T21:30:29.580Z,2.72
2022-07-28T21:32:57.051Z,3.20
2022-07-28T21:35:24.483Z,2.80
2022-07-28T21:37:51.889Z,2.92
2022-07-28T21:40:19.300Z,3.08
2022-07-28T21:42:47.477Z,2.78
2022-07-28T21:45:14.581Z,3.20
2022-07-28T21:47:42.106Z,3.20
2022-07-28T21:50:09.464Z,3.20
2022-07-28T21:52:37.480Z,3.20
2022-07-28T21:55:06.152Z,3.15
2022-07-28T21:57:34.573Z,3.15
2022-07-28T22:00:02.189Z,2.95
2022-07-28T22:02:29.664Z,3.20
2022-07-28T22:04:57.140Z,3.10
2022-07-28T22:07:24.241Z,3.05
2022-07-28T22:09:51.398Z,3.22
2022-07-28T22:12:18.799Z,3.42
2022-07-28T22:14:45.853Z,3.37
2022-07-28T22:17:12.991Z,3.40
2022-07-28T22:19:40.404Z,3.42
2022-07-28T22:22:07.537Z,3.58
2022-07-28T22:24:34.618Z,3.53
2022-07-28T22:27:01.974Z,3.58
2022-07-28T22:29:30.980Z,3.33
2022-07-28T22:31:59.458Z,3.65
2022-07-28T22:34:28.042Z,3.40
2022-07-28T22:36:55.354Z,3.37
2022-07-28T22:39:22.445Z,3.70
2022-07-28T22:41:49.854Z,3.30
2022-07-28T22:44:17.488Z,3.30
2022-07-28T22:46:44.913Z,3.30
2022-07-28T22:49:12.324Z,3.30
2022-07-28T22:51:39.443Z,3.10
2022-07-28T22:54:14.585Z,3.30
2022-07-28T22:56:42.127Z,3.30
2022-07-28T22:59:09.310Z,3.22
2022-07-28T23:01:37.594Z,3.42
2022-07-28T23:04:05.081Z,3.12
2022-07-28T23:06:33.565Z,3.67
2022-07-28T23:09:00.930Z,3.72
2022-07-28T23:11:27.997Z,3.25
2022-07-28T23:13:55.055Z,3.28
2022-07-28T23:16:22.487Z,3.20
2022-07-28T23:18:49.720Z,3.15
2022-07-28T23:21:16.826Z,3.30
2022-07-28T23:23:44.196Z,3.33
2022-07-28T23:26:11.334Z,3.10
2022-07-28T23:28:38.558Z,3.25
2022-07-28T23:31:06.319Z,3.35
2022-07-28T23:33:55.527Z,3.03
2022-07-28T23:36:26.914Z,3.20
2022-07-28T23:38:56.573Z,3.00
2022-07-28T23:41:24.575Z,3.67
2022-07-28T23:43:52.010Z,3.08
2022-07-28T23:46:19.192Z,3.25
2022-07-28T23:48:46.653Z,3.37
2022-07-28T23:51:16.843Z,3.67
2022-07-28T23:53:44.023Z,3.20
2022-07-28T23:56:11.393Z,3.20
2022-07-28T23:58:38.497Z,3.20
